Observations for Trim Patrick St
| Time | AQI | Temp °C | Hum % | Pres Pa | CO μg/m³ | H₂S μg/m³ | NO μg/m³ | NO₂ μg/m³ | O₃ μg/m³ | SO₂ μg/m³ | PM1 μg/m³ | PM2.5 μg/m³ | PM10 μg/m³ |
|---|---|---|---|---|---|---|---|---|---|---|---|---|---|
| Friday 31 July 2026 | |||||||||||||
| 06:57 | 2 | 10.9 | 82 | 38,460 | 0.47 | 0.24 | 4.08 | 23.73 | 19.06 | 0 | 4.57 | 7.86 | 8.65 |
| 06:56 | 2 | 10.9 | 82 | 38,460 | 0.46 | 0 | 4.06 | 15.98 | 26.66 | 0 | 4.57 | 7.16 | 7.88 |
| 06:55 | 2 | 10.8 | 82 | 38,460 | 0.47 | 0.45 | 4.14 | 16.92 | 24.75 | 0 | 4.57 | 7.86 | 8.65 |
| 06:54 | 2 | 10.8 | 82 | 38,460 | 0.45 | 1.12 | 4.15 | 18.07 | 25.06 | 0 | 4.57 | 7.86 | 8.65 |
| 06:53 | 2 | 10.7 | 82 | 38,460 | 0.45 | 1.58 | 4.16 | 25 | 41.8 | 0 | 2.86 | 5.77 | 6.35 |
| 06:52 | 2 | 10.7 | 82 | 38,460 | 0.46 | 1.22 | 4.16 | 26.12 | 30.98 | 0 | 5.43 | 7.88 | 8.67 |
| 06:51 | 2 | 10.7 | 82 | 38,460 | 0.46 | 0.01 | 4.09 | 15.55 | 23.86 | 0 | 4.57 | 7.86 | 8.65 |
| 06:49 | 2 | 10.6 | 82 | 38,460 | 0.46 | 0 | 4.07 | 16.86 | 25.08 | 0 | 4.57 | 7.16 | 7.88 |
| 06:47 | 2 | 10.6 | 82 | 38,460 | 0.46 | 1.29 | 4.11 | 21.35 | 39.47 | 0 | 4.57 | 7.91 | 8.7 |
| 06:46 | 2 | 10.6 | 82 | 38,460 | 0.45 | 0.67 | 4.15 | 18.51 | 25.35 | 0 | 4.57 | 7.14 | 7.86 |
| 06:45 | 2 | 10.5 | 82 | 38,460 | 0.46 | 0.95 | 4.13 | 22.24 | 38.4 | 0 | 4.57 | 7.16 | 7.87 |
| 06:44 | 2 | 10.5 | 82 | 38,460 | 0.45 | 0.33 | 4.14 | 17.19 | 27.32 | 0 | 3.71 | 7.85 | 8.64 |
| 06:39 | 2 | 10.4 | 82 | 38,460 | 0.45 | 2.06 | 4.14 | 22.35 | 40.96 | 0 | 5.43 | 8.53 | 9.39 |
| 06:36 | 2 | 10.3 | 82 | 38,460 | 0.45 | 0 | 4.07 | 16.37 | 23.92 | 0 | 3.71 | 7.14 | 7.86 |
| 06:34 | 2 | 10.3 | 82 | 38,460 | 0.45 | 1.62 | 4.18 | 20.56 | 38.77 | 0 | 3.71 | 7.18 | 7.9 |
| 06:33 | 2 | 10.2 | 80 | 38,460 | 0.45 | 0.58 | 4.21 | 19.31 | 24.63 | 0 | 3.71 | 7.31 | 8.04 |
| 06:30 | 2 | 10.2 | 81 | 38,460 | 0.45 | 0.58 | 4.19 | 17.34 | 21.66 | 0 | 4.57 | 7.27 | 8 |
| 06:29 | 2 | 10.2 | 82 | 38,460 | 0.45 | 1.15 | 4.15 | 19.23 | 27.25 | 0 | 5.43 | 8.57 | 9.43 |
| 06:28 | 2 | 10.2 | 82 | 38,460 | 0.46 | 1.33 | 4.21 | 25.44 | 22.87 | 0 | 4.57 | 7.14 | 7.86 |
| 06:27 | 2 | 10.2 | 82 | 38,460 | 0.45 | 0.71 | 4.32 | 18.74 | 20.28 | 0 | 4.57 | 7.87 | 8.66 |